Time;durP1;ratioP1;P1;durP2;ratioP2;P2;SDS_P1;SDS_P2;PMS_P1;PMS_P2;Temp;Humidity;BMP_temperature;BMP_pressure;BME280_temperature;BME280_humidity;BME280_pressure;Samples;Min_cycle;Max_cycle;Signal;HPM_P1;HPM_P2
2023/04/23 00:02:21;;;;;;;1.20;0.70;;;15.20;99.90;;;;;;5095349;28;20704;-58
2023/04/23 00:04:51;;;;;;;1.20;0.70;;;15.10;99.90;;;;;;5095238;28;20716;-58
2023/04/23 00:07:20;;;;;;;0.90;0.60;;;15.10;99.90;;;;;;5096493;28;20508;-58
2023/04/23 00:09:47;;;;;;;1.00;0.60;;;15.10;99.90;;;;;;5096840;28;21019;-58
2023/04/23 00:12:14;;;;;;;1.10;0.55;;;15.10;99.90;;;;;;5097106;28;20422;-58
2023/04/23 00:14:42;;;;;;;0.90;0.60;;;15.10;99.90;;;;;;5096851;28;20418;-59
2023/04/23 00:17:09;;;;;;;0.90;0.60;;;15.20;99.90;;;;;;5096769;28;20848;-59
2023/04/23 00:19:36;;;;;;;1.00;0.60;;;15.20;99.90;;;;;;5096688;28;20422;-58
2023/04/23 00:22:05;;;;;;;2.00;0.60;;;15.20;99.90;;;;;;5097086;28;20725;-57
2023/04/23 00:24:34;;;;;;;0.93;0.50;;;15.30;99.90;;;;;;5096566;28;20417;-57
2023/04/23 00:27:02;;;;;;;1.80;0.50;;;15.30;99.90;;;;;;5096497;28;20460;-57
2023/04/23 00:29:29;;;;;;;0.93;0.50;;;15.40;99.90;;;;;;5096548;28;20414;-57
2023/04/23 00:31:56;;;;;;;1.10;0.50;;;15.30;99.90;;;;;;5096615;28;20433;-57
2023/04/23 00:34:23;;;;;;;1.00;0.57;;;15.30;99.90;;;;;;5096687;28;20418;-57
2023/04/23 00:36:50;;;;;;;0.80;0.50;;;15.20;99.90;;;;;;5096793;28;20426;-55
2023/04/23 00:39:18;;;;;;;0.80;0.50;;;15.10;99.90;;;;;;5095841;28;20433;-58
2023/04/23 00:41:45;;;;;;;0.70;0.50;;;15.00;99.90;;;;;;5096628;28;20426;-58
2023/04/23 00:44:13;;;;;;;1.05;0.50;;;15.00;99.90;;;;;;5095212;28;20514;-58
2023/04/23 00:46:40;;;;;;;1.00;0.50;;;15.00;99.90;;;;;;5095285;28;20861;-57
2023/04/23 00:49:07;;;;;;;0.85;0.50;;;14.90;99.90;;;;;;5096037;28;20414;-57
2023/04/23 00:51:34;;;;;;;1.20;0.50;;;14.90;99.90;;;;;;5095684;28;20422;-59
2023/04/23 00:54:02;;;;;;;2.10;0.70;;;14.80;99.90;;;;;;5096344;28;20414;-58
2023/04/23 00:56:30;;;;;;;1.60;0.90;;;14.70;99.90;;;;;;5096528;28;20430;-58
2023/04/23 00:58:57;;;;;;;1.60;0.60;;;14.70;99.90;;;;;;5096004;28;20430;-57
2023/04/23 01:01:25;;;;;;;1.47;0.70;;;14.80;99.90;;;;;;5096702;28;20858;-58
2023/04/23 01:03:53;;;;;;;0.90;0.50;;;14.80;99.90;;;;;;5095616;28;20418;-57
2023/04/23 01:06:20;;;;;;;1.60;0.82;;;14.80;99.90;;;;;;5094773;28;20429;-59
2023/04/23 01:08:48;;;;;;;0.90;0.60;;;14.70;99.90;;;;;;5093979;28;20418;-57
2023/04/23 01:11:15;;;;;;;1.10;0.60;;;14.70;99.90;;;;;;5094446;28;20866;-57
2023/04/23 01:13:44;;;;;;;0.70;0.40;;;14.70;99.90;;;;;;5094368;28;20421;-59
2023/04/23 01:16:11;;;;;;;1.60;0.50;;;14.70;99.90;;;;;;5094767;28;20488;-57
2023/04/23 01:18:39;;;;;;;0.80;0.50;;;14.70;99.90;;;;;;5094266;28;20804;-57
2023/04/23 01:21:07;;;;;;;0.80;0.50;;;14.60;99.90;;;;;;5094438;28;20701;-59
2023/04/23 01:23:35;;;;;;;1.20;0.50;;;14.60;99.90;;;;;;5095557;28;20476;-57
2023/04/23 01:26:03;;;;;;;0.80;0.50;;;14.60;99.90;;;;;;5095164;28;20422;-57
2023/04/23 01:28:30;;;;;;;0.70;0.50;;;14.60;99.90;;;;;;5095578;28;20895;-58
2023/04/23 01:30:59;;;;;;;1.20;0.50;;;14.60;99.90;;;;;;5095766;28;20679;-59
2023/04/23 01:33:26;;;;;;;0.85;0.50;;;14.70;99.90;;;;;;5095685;28;20417;-59
2023/04/23 01:35:55;;;;;;;1.20;0.50;;;14.70;99.90;;;;;;5095150;28;20425;-59
2023/04/23 01:38:23;;;;;;;1.10;0.50;;;14.80;99.90;;;;;;5095357;28;20433;-58
2023/04/23 01:40:52;;;;;;;1.10;0.50;;;14.90;99.90;;;;;;5094987;28;20443;-58
2023/04/23 01:43:20;;;;;;;0.80;0.50;;;14.80;99.90;;;;;;5095381;28;20429;-58
2023/04/23 01:45:47;;;;;;;0.90;0.50;;;14.80;99.90;;;;;;5094845;28;20768;-58
2023/04/23 01:48:14;;;;;;;0.87;0.50;;;14.70;99.90;;;;;;5094720;28;20410;-58
2023/04/23 01:50:42;;;;;;;1.40;0.60;;;14.70;99.90;;;;;;5093331;28;20425;-58
2023/04/23 01:53:11;;;;;;;3.00;0.60;;;14.70;99.90;;;;;;5093298;28;20740;-58
2023/04/23 01:55:39;;;;;;;0.90;0.50;;;14.70;99.90;;;;;;5094064;28;20417;-58
2023/04/23 01:58:08;;;;;;;0.70;0.50;;;14.60;99.90;;;;;;5092712;28;20793;-58
2023/04/23 02:00:35;;;;;;;0.80;0.50;;;14.50;99.90;;;;;;5093956;28;20432;-58
2023/04/23 02:03:02;;;;;;;0.70;0.50;;;14.40;99.90;;;;;;5094202;28;20422;-59
2023/04/23 02:05:30;;;;;;;0.80;0.50;;;14.50;99.90;;;;;;5094727;28;20867;-58
2023/04/23 02:07:57;;;;;;;0.95;0.60;;;14.40;99.90;;;;;;5095725;28;20421;-58
2023/04/23 02:10:24;;;;;;;1.00;0.50;;;14.30;99.90;;;;;;5094614;28;20441;-59
2023/04/23 02:12:51;;;;;;;1.00;0.50;;;14.30;99.90;;;;;;5094107;28;20868;-58
2023/04/23 02:15:20;;;;;;;0.80;0.57;;;14.30;99.90;;;;;;5094719;28;20433;-58
2023/04/23 02:17:49;;;;;;;1.50;0.60;;;14.30;99.90;;;;;;5093314;28;20907;-58
2023/04/23 02:20:17;;;;;;;1.10;0.60;;;14.20;99.90;;;;;;5093999;28;20482;-58
2023/04/23 02:22:45;;;;;;;0.90;0.50;;;14.10;99.90;;;;;;5094623;28;20702;-56
2023/04/23 02:25:14;;;;;;;0.90;0.57;;;14.10;99.90;;;;;;5094183;28;20458;-56
2023/04/23 02:27:41;;;;;;;1.40;0.70;;;14.10;99.90;;;;;;5094555;28;20497;-57
2023/04/23 02:30:10;;;;;;;1.10;0.50;;;14.00;99.90;;;;;;5094414;28;20516;-55
2023/04/23 02:32:39;;;;;;;1.55;0.50;;;14.00;99.90;;;;;;5094370;28;20803;-56
2023/04/23 02:35:07;;;;;;;1.40;0.70;;;14.00;99.90;;;;;;5094419;28;20992;-57
2023/04/23 02:37:34;;;;;;;0.80;0.50;;;13.80;99.90;;;;;;5094037;28;20521;-58
2023/04/23 02:40:01;;;;;;;1.15;0.50;;;13.80;99.90;;;;;;5093930;28;20958;-59
2023/04/23 02:42:28;;;;;;;1.15;0.47;;;13.80;99.90;;;;;;5094443;28;20428;-58
2023/04/23 02:44:55;;;;;;;1.20;0.50;;;13.70;99.90;;;;;;5093742;28;20771;-58
2023/04/23 02:47:22;;;;;;;0.70;0.50;;;13.70;99.90;;;;;;5094698;28;20424;-58
2023/04/23 02:49:51;;;;;;;0.80;0.50;;;13.70;99.90;;;;;;5093995;28;20417;-58
2023/04/23 02:52:18;;;;;;;1.00;0.60;;;13.70;99.90;;;;;;5094759;28;20425;-58
2023/04/23 02:54:45;;;;;;;1.40;0.60;;;13.70;99.90;;;;;;5094067;28;20772;-58
2023/04/23 02:57:14;;;;;;;0.70;0.50;;;13.60;99.90;;;;;;5093010;28;20738;-58
2023/04/23 02:59:41;;;;;;;0.88;0.43;;;13.50;99.90;;;;;;5093737;28;20507;-58
2023/04/23 03:02:08;;;;;;;1.00;0.40;;;13.40;99.90;;;;;;5094000;28;20429;-59
2023/04/23 03:04:35;;;;;;;1.08;0.50;;;13.30;99.90;;;;;;5093954;28;20838;-59
2023/04/23 03:07:03;;;;;;;0.60;0.40;;;13.30;99.90;;;;;;5093401;28;20426;-57
2023/04/23 03:09:30;;;;;;;0.70;0.50;;;13.20;99.90;;;;;;5095448;28;20409;-58
2023/04/23 03:11:57;;;;;;;0.80;0.60;;;13.10;99.90;;;;;;5098897;28;20486;-58
2023/04/23 03:14:25;;;;;;;1.40;0.50;;;13.00;99.90;;;;;;5098371;28;20738;-58
2023/04/23 03:16:52;;;;;;;0.95;0.50;;;13.00;99.90;;;;;;5097735;28;20433;-58
2023/04/23 03:19:19;;;;;;;0.60;0.50;;;13.00;99.90;;;;;;5097490;28;20432;-58
2023/04/23 03:21:46;;;;;;;1.00;0.50;;;13.00;99.90;;;;;;5096557;28;20429;-58
2023/04/23 03:24:15;;;;;;;0.90;0.60;;;13.00;99.90;;;;;;5097413;28;20421;-58
2023/04/23 03:26:42;;;;;;;0.63;0.50;;;12.90;99.90;;;;;;5098705;28;20430;-58
2023/04/23 03:29:09;;;;;;;1.70;0.50;;;12.80;99.90;;;;;;5098091;28;20469;-59
2023/04/23 03:31:36;;;;;;;0.90;0.60;;;12.80;99.90;;;;;;5097914;28;20428;-58
2023/04/23 03:34:03;;;;;;;0.60;0.40;;;12.80;99.90;;;;;;5097222;28;20432;-58
2023/04/23 03:36:31;;;;;;;0.60;0.40;;;12.80;99.90;;;;;;5097441;28;20464;-58
2023/04/23 03:38:58;;;;;;;0.70;0.40;;;12.80;99.90;;;;;;5097669;28;20500;-58
2023/04/23 03:41:26;;;;;;;0.60;0.43;;;12.90;99.90;;;;;;5097937;28;20483;-58
2023/04/23 03:43:53;;;;;;;0.70;0.40;;;12.80;99.90;;;;;;5097397;28;20417;-58
2023/04/23 03:46:20;;;;;;;0.60;0.40;;;12.80;99.90;;;;;;5096644;28;20799;-58
2023/04/23 03:48:47;;;;;;;0.98;0.40;;;12.80;99.90;;;;;;5097439;28;20420;-57
2023/04/23 03:51:14;;;;;;;0.77;0.40;;;12.80;99.90;;;;;;5097501;28;20529;-58
2023/04/23 03:53:42;;;;;;;0.50;0.40;;;12.70;99.90;;;;;;5097890;28;20495;-58
2023/04/23 03:56:09;;;;;;;0.70;0.40;;;12.70;99.90;;;;;;5096547;28;20426;-58
2023/04/23 03:58:37;;;;;;;0.80;0.40;;;12.70;99.90;;;;;;5097983;28;20750;-58
2023/04/23 04:01:04;;;;;;;0.85;0.40;;;12.70;99.90;;;;;;5097073;28;20456;-58
2023/04/23 04:03:31;;;;;;;1.10;0.40;;;12.70;99.90;;;;;;5095828;28;20422;-58
2023/04/23 04:05:58;;;;;;;0.63;0.40;;;12.70;99.90;;;;;;5094984;28;20430;-59
2023/04/23 04:08:26;;;;;;;0.82;0.40;;;12.60;99.90;;;;;;5095276;28;20422;-58
2023/04/23 04:10:53;;;;;;;0.60;0.40;;;12.70;99.90;;;;;;5095522;28;20429;-59
2023/04/23 04:13:20;;;;;;;0.80;0.40;;;12.60;99.90;;;;;;5095340;28;20418;-58
2023/04/23 04:15:49;;;;;;;1.20;0.50;;;12.60;99.90;;;;;;5095458;28;20748;-58
2023/04/23 04:18:16;;;;;;;0.73;0.50;;;12.60;99.90;;;;;;5095975;28;20780;-59
2023/04/23 04:20:44;;;;;;;1.10;0.40;;;12.60;99.90;;;;;;5096008;28;20433;-58
2023/04/23 04:23:11;;;;;;;0.75;0.40;;;12.60;99.90;;;;;;5097076;28;20872;-59
2023/04/23 04:25:39;;;;;;;0.60;0.30;;;12.60;99.90;;;;;;5096908;28;20425;-59
2023/04/23 04:28:06;;;;;;;0.70;0.40;;;12.50;99.90;;;;;;5097269;28;20862;-56
2023/04/23 04:30:33;;;;;;;0.70;0.40;;;12.40;99.90;;;;;;5095125;28;20521;-58
2023/04/23 04:33:02;;;;;;;0.73;0.40;;;12.40;99.90;;;;;;5094529;28;20448;-58
2023/04/23 04:35:29;;;;;;;0.60;0.40;;;12.40;99.90;;;;;;5094818;28;20433;-58
2023/04/23 04:37:57;;;;;;;0.75;0.40;;;12.40;99.90;;;;;;5095185;28;20421;-56
2023/04/23 04:40:25;;;;;;;0.57;0.40;;;12.40;99.90;;;;;;5095407;28;20440;-57
2023/04/23 04:42:53;;;;;;;0.60;0.40;;;12.40;99.90;;;;;;5096936;28;20801;-56
2023/04/23 04:45:21;;;;;;;0.80;0.40;;;12.40;99.90;;;;;;5096395;28;20425;-58
2023/04/23 04:47:48;;;;;;;0.65;0.35;;;12.40;99.90;;;;;;5096953;28;20791;-58
2023/04/23 04:50:16;;;;;;;0.60;0.30;;;12.40;99.90;;;;;;5095796;28;20425;-58
2023/04/23 04:52:43;;;;;;;0.60;0.45;;;12.30;99.90;;;;;;5095993;28;20418;-58
2023/04/23 04:55:10;;;;;;;0.80;0.40;;;12.40;99.90;;;;;;5096226;28;20913;-58
2023/04/23 04:57:37;;;;;;;0.77;0.40;;;12.40;99.90;;;;;;5096647;28;20421;-58
2023/04/23 05:00:21;;;;;;;0.60;0.40;;;12.40;99.90;;;;;;5096494;28;20430;-58
2023/04/23 05:02:49;;;;;;;1.55;0.40;;;12.40;99.90;;;;;;5095372;28;20464;-57
2023/04/23 05:05:18;;;;;;;0.60;0.40;;;12.40;99.90;;;;;;5095745;28;20430;-57
2023/04/23 05:07:45;;;;;;;0.63;0.40;;;12.40;99.90;;;;;;5095919;28;20429;-57
2023/04/23 05:10:14;;;;;;;0.80;0.40;;;12.40;99.90;;;;;;5095787;28;20520;-58
2023/04/23 05:12:41;;;;;;;0.70;0.40;;;12.50;99.90;;;;;;5095513;28;20442;-58
2023/04/23 05:15:12;;;;;;;0.60;0.40;;;12.60;99.90;;;;;;5096131;28;20422;-58
2023/04/23 05:17:39;;;;;;;0.70;0.40;;;12.80;99.90;;;;;;5095946;28;20418;-58
2023/04/23 05:20:09;;;;;;;0.70;0.40;;;12.70;99.90;;;;;;5096113;28;20709;-58
2023/04/23 05:22:38;;;;;;;0.70;0.40;;;12.80;99.90;;;;;;5095891;28;20468;-56
2023/04/23 05:25:06;;;;;;;0.80;0.40;;;12.80;99.90;;;;;;5095748;28;20764;-58
2023/04/23 05:27:33;;;;;;;0.60;0.40;;;12.80;99.90;;;;;;5095544;28;20441;-58
2023/04/23 05:30:01;;;;;;;0.63;0.40;;;12.80;99.90;;;;;;5095447;28;20753;-58
2023/04/23 05:32:28;;;;;;;0.70;0.43;;;12.80;99.90;;;;;;5095001;28;20893;-57
2023/04/23 05:34:56;;;;;;;0.60;0.40;;;12.80;99.90;;;;;;5095456;28;20453;-55
2023/04/23 05:37:23;;;;;;;1.10;0.40;;;12.90;99.90;;;;;;5094605;28;20417;-58
2023/04/23 05:39:51;;;;;;;0.60;0.40;;;13.10;99.90;;;;;;5094434;28;20430;-58
2023/04/23 05:42:18;;;;;;;0.68;0.40;;;13.10;99.90;;;;;;5095182;28;20422;-57
2023/04/23 05:44:45;;;;;;;1.50;0.40;;;13.20;99.90;;;;;;5095415;28;20437;-57
2023/04/23 05:47:14;;;;;;;0.60;0.40;;;13.20;99.90;;;;;;5094675;28;20421;-58
2023/04/23 05:49:41;;;;;;;0.50;0.33;;;13.20;99.90;;;;;;5093966;28;20414;-57
2023/04/23 05:52:08;;;;;;;0.70;0.30;;;13.20;99.90;;;;;;5095650;28;20776;-58
2023/04/23 05:54:35;;;;;;;0.60;0.40;;;13.30;99.90;;;;;;5094768;28;20829;-57
2023/04/23 05:57:03;;;;;;;0.60;0.40;;;13.40;99.90;;;;;;5095283;28;20804;-57
2023/04/23 05:59:31;;;;;;;0.60;0.30;;;13.40;99.90;;;;;;5094842;28;20533;-57
2023/04/23 06:01:58;;;;;;;0.40;0.30;;;13.20;99.90;;;;;;5094277;28;20638;-56
2023/04/23 06:04:26;;;;;;;0.57;0.30;;;13.30;99.90;;;;;;5093408;28;20422;-57
2023/04/23 06:06:53;;;;;;;0.50;0.30;;;13.20;99.90;;;;;;5093327;28;20432;-54
2023/04/23 06:09:20;;;;;;;0.50;0.30;;;13.30;99.90;;;;;;5092412;28;20417;-56
2023/04/23 06:11:49;;;;;;;0.50;0.30;;;13.20;99.90;;;;;;5092503;28;20832;-56
2023/04/23 06:14:17;;;;;;;1.30;0.30;;;13.20;99.90;;;;;;5092173;28;20413;-56
2023/04/23 06:16:45;;;;;;;0.45;0.30;;;13.20;99.90;;;;;;5092642;28;20421;-57
2023/04/23 06:19:12;;;;;;;0.40;0.20;;;13.10;99.90;;;;;;5092526;28;20610;-58
2023/04/23 06:21:39;;;;;;;0.60;0.30;;;13.10;99.90;;;;;;5092648;28;20730;-57
2023/04/23 06:24:07;;;;;;;0.50;0.30;;;13.10;99.90;;;;;;5093445;28;20418;-57
2023/04/23 06:26:34;;;;;;;1.00;0.30;;;13.10;99.90;;;;;;5093424;28;20767;-57
2023/04/23 06:29:01;;;;;;;0.50;0.30;;;13.20;99.90;;;;;;5092710;28;20422;-57
2023/04/23 06:31:30;;;;;;;1.10;0.40;;;13.30;99.90;;;;;;5093821;28;20433;-57
2023/04/23 06:33:57;;;;;;;0.77;0.30;;;13.30;99.90;;;;;;5093981;28;20418;-57
2023/04/23 06:36:24;;;;;;;0.50;0.30;;;13.40;99.90;;;;;;5093149;28;20433;-57
2023/04/23 06:38:51;;;;;;;0.50;0.20;;;13.50;99.90;;;;;;5093009;28;20422;-56
2023/04/23 06:41:18;;;;;;;0.47;0.20;;;13.60;99.90;;;;;;5094070;28;20437;-58
2023/04/23 06:43:47;;;;;;;0.57;0.30;;;13.60;99.90;;;;;;5094267;28;20512;-58
2023/04/23 06:46:14;;;;;;;0.40;0.20;;;13.60;99.90;;;;;;5094421;28;20517;-58
2023/04/23 06:48:43;;;;;;;0.60;0.20;;;13.70;99.90;;;;;;5094107;28;20418;-58
2023/04/23 06:51:10;;;;;;;1.00;0.20;;;13.70;99.90;;;;;;5094254;28;20702;-57
2023/04/23 06:53:37;;;;;;;0.70;0.20;;;13.90;99.90;;;;;;5092665;28;20782;-58
2023/04/23 06:56:04;;;;;;;0.63;0.30;;;14.10;99.90;;;;;;5093625;28;20873;-58
2023/04/23 06:58:31;;;;;;;0.40;0.20;;;14.30;99.90;;;;;;5093353;28;20422;-58
2023/04/23 07:00:59;;;;;;;0.60;0.30;;;14.40;99.90;;;;;;5093965;28;20433;-58
2023/04/23 07:03:28;;;;;;;0.70;0.20;;;14.50;99.90;;;;;;5093540;28;20421;-57
2023/04/23 07:05:56;;;;;;;0.40;0.20;;;14.60;99.90;;;;;;5093986;28;20426;-57
2023/04/23 07:08:23;;;;;;;0.40;0.20;;;14.50;99.90;;;;;;5094069;28;20471;-57
2023/04/23 07:10:52;;;;;;;0.80;0.30;;;14.60;99.90;;;;;;5094094;28;20763;-58
2023/04/23 07:13:19;;;;;;;0.50;0.20;;;14.70;99.90;;;;;;5093795;28;20853;-58
2023/04/23 07:15:47;;;;;;;0.40;0.20;;;14.90;99.90;;;;;;5094155;28;20433;-56
2023/04/23 07:18:15;;;;;;;0.50;0.30;;;14.80;99.90;;;;;;5093807;28;20430;-57
2023/04/23 07:20:42;;;;;;;0.40;0.20;;;14.70;99.90;;;;;;5093473;28;20452;-57
2023/04/23 07:23:10;;;;;;;0.40;0.20;;;14.70;99.90;;;;;;5092116;28;20418;-58
2023/04/23 07:25:37;;;;;;;0.40;0.20;;;14.70;99.90;;;;;;5091695;28;20426;-59
2023/04/23 07:28:05;;;;;;;0.38;0.20;;;14.70;99.90;;;;;;5093298;28;20474;-57
2023/04/23 07:30:32;;;;;;;0.50;0.30;;;14.70;99.90;;;;;;5092605;28;20425;-57
2023/04/23 07:32:59;;;;;;;0.40;0.20;;;14.80;99.90;;;;;;5092742;28;20830;-58
2023/04/23 07:35:26;;;;;;;0.90;0.20;;;14.90;99.90;;;;;;5093700;28;20457;-58
2023/04/23 07:37:56;;;;;;;0.60;0.30;;;15.20;99.90;;;;;;5092404;28;20425;-58
2023/04/23 07:40:25;;;;;;;0.50;0.30;;;15.40;99.90;;;;;;5092969;28;20528;-59
2023/04/23 07:42:52;;;;;;;0.50;0.30;;;15.50;99.90;;;;;;5092472;28;20418;-59
2023/04/23 07:45:19;;;;;;;0.50;0.30;;;15.60;99.90;;;;;;5093683;28;20440;-59
2023/04/23 07:47:46;;;;;;;1.20;0.30;;;15.70;99.90;;;;;;5092232;28;20749;-59
2023/04/23 07:50:13;;;;;;;0.60;0.30;;;15.50;99.90;;;;;;5092394;28;20830;-59
2023/04/23 07:52:40;;;;;;;0.50;0.30;;;15.40;99.90;;;;;;5092797;28;20771;-59
2023/04/23 07:55:09;;;;;;;0.50;0.30;;;15.50;99.90;;;;;;5090905;28;20478;-59
2023/04/23 07:57:37;;;;;;;0.93;0.30;;;15.70;99.90;;;;;;5094059;28;20414;-59
2023/04/23 08:00:08;;;;;;;0.57;0.30;;;15.90;99.90;;;;;;5095084;28;20442;-59
2023/04/23 08:02:35;;;;;;;0.65;0.30;;;16.00;99.90;;;;;;5094177;28;20406;-59
2023/04/23 08:05:02;;;;;;;0.50;0.30;;;16.10;99.90;;;;;;5094642;28;20422;-59
2023/04/23 08:07:29;;;;;;;0.50;0.30;;;16.20;99.90;;;;;;5094983;28;20425;-59
2023/04/23 08:10:01;;;;;;;0.60;0.40;;;16.20;99.90;;;;;;5095190;28;20850;-59
2023/04/23 08:12:29;;;;;;;0.50;0.30;;;16.20;99.90;;;;;;5095242;28;20422;-59
2023/04/23 08:14:58;;;;;;;0.40;0.30;;;16.20;99.90;;;;;;5094372;28;20429;-59
2023/04/23 08:17:25;;;;;;;0.70;0.30;;;16.10;99.90;;;;;;5093459;28;20729;-60
2023/04/23 08:19:52;;;;;;;0.55;0.40;;;16.00;99.90;;;;;;5094017;28;20431;-59
2023/04/23 08:22:19;;;;;;;0.60;0.40;;;16.10;99.90;;;;;;5094393;28;20425;-58
2023/04/23 08:24:46;;;;;;;0.60;0.40;;;16.00;99.90;;;;;;5094939;28;20715;-58
2023/04/23 08:27:13;;;;;;;0.57;0.30;;;16.00;99.90;;;;;;5093468;28;20418;-58
2023/04/23 08:29:40;;;;;;;0.40;0.30;;;15.90;99.90;;;;;;5093586;28;20436;-57
2023/04/23 08:32:09;;;;;;;0.50;0.30;;;15.90;99.90;;;;;;5094129;28;20864;-58
2023/04/23 08:34:36;;;;;;;0.53;0.30;;;16.00;99.90;;;;;;5096650;28;20417;-59
2023/04/23 08:37:03;;;;;;;0.47;0.30;;;16.10;99.90;;;;;;5093303;28;20448;-60
2023/04/23 08:39:31;;;;;;;0.70;0.40;;;15.90;99.90;;;;;;5093424;28;20718;-59
2023/04/23 08:42:04;;;;;;;0.50;0.40;;;16.00;99.90;;;;;;5094522;28;20436;-59
2023/04/23 08:44:32;;;;;;;0.80;0.30;;;16.10;99.90;;;;;;5095384;28;20779;-59
2023/04/23 08:47:04;;;;;;;0.70;0.30;;;16.20;99.90;;;;;;5095146;28;20441;-58
2023/04/23 08:49:34;;;;;;;0.50;0.30;;;16.40;99.90;;;;;;5095669;28;20497;-58
2023/04/23 08:52:10;;;;;;;0.90;0.30;;;16.50;99.90;;;;;;5095037;28;20710;-58
2023/04/23 08:54:41;;;;;;;0.50;0.40;;;16.60;99.90;;;;;;5095980;28;20453;-59
2023/04/23 08:57:09;;;;;;;0.50;0.30;;;16.60;99.90;;;;;;5094253;28;20409;-59
2023/04/23 08:59:37;;;;;;;0.60;0.30;;;16.70;99.90;;;;;;5094157;28;20444;-59
2023/04/23 09:02:08;;;;;;;0.80;0.40;;;16.70;99.90;;;;;;5093688;28;20426;-59
2023/04/23 09:04:38;;;;;;;0.70;0.40;;;16.70;99.90;;;;;;5095405;28;20418;-58
2023/04/23 09:07:06;;;;;;;0.50;0.30;;;16.60;99.90;;;;;;5095570;28;20429;-58
2023/04/23 09:09:34;;;;;;;0.50;0.30;;;16.60;99.90;;;;;;5095358;28;20457;-59
2023/04/23 09:12:01;;;;;;;0.60;0.40;;;16.80;99.90;;;;;;5094983;28;20429;-59
2023/04/23 09:14:28;;;;;;;0.87;0.40;;;17.00;99.90;;;;;;5095052;28;20418;-58
2023/04/23 09:16:56;;;;;;;0.50;0.30;;;16.80;99.90;;;;;;5095513;28;20425;-59
2023/04/23 09:19:26;;;;;;;0.70;0.40;;;16.70;99.90;;;;;;5095156;28;20418;-58
2023/04/23 09:21:55;;;;;;;0.60;0.30;;;16.60;99.90;;;;;;5094143;28;20433;-59
2023/04/23 09:24:25;;;;;;;0.90;0.30;;;16.70;99.90;;;;;;5074179;28;20423;-59
2023/04/23 09:26:53;;;;;;;0.50;0.30;;;16.90;99.90;;;;;;5074031;28;20488;-59
2023/04/23 09:29:22;;;;;;;0.40;0.30;;;17.00;99.90;;;;;;5073987;28;20458;-59
2023/04/23 09:31:51;;;;;;;0.50;0.30;;;17.10;99.90;;;;;;5072600;28;20435;-59
2023/04/23 09:34:18;;;;;;;0.98;0.20;;;17.30;99.90;;;;;;5073224;28;20510;-59
2023/04/23 09:36:48;;;;;;;0.50;0.30;;;17.40;99.90;;;;;;5072561;28;20423;-60
2023/04/23 09:39:18;;;;;;;0.50;0.30;;;17.50;99.90;;;;;;5073042;28;20426;-60
2023/04/23 09:41:45;;;;;;;0.77;0.30;;;17.50;99.90;;;;;;5073516;28;20597;-59
2023/04/23 09:44:17;;;;;;;0.50;0.30;;;17.40;99.90;;;;;;5072555;28;20420;-59
2023/04/23 09:46:44;;;;;;;0.60;0.30;;;17.20;99.90;;;;;;5073185;28;20427;-59
2023/04/23 09:49:13;;;;;;;0.45;0.30;;;17.10;99.90;;;;;;5072887;28;20735;-59
2023/04/23 09:51:41;;;;;;;0.40;0.30;;;17.10;99.90;;;;;;5072465;28;20428;-59
2023/04/23 09:54:12;;;;;;;1.60;0.30;;;17.40;99.90;;;;;;5071842;28;20426;-60
2023/04/23 09:56:41;;;;;;;0.40;0.30;;;17.30;99.90;;;;;;5072604;28;20850;-60
2023/04/23 09:59:21;;;;;;;0.57;0.30;;;17.40;99.90;;;;;;5074802;28;20827;-61
2023/04/23 10:01:48;;;;;;;0.60;0.30;;;17.70;99.90;;;;;;5073480;28;20878;-60
2023/04/23 10:04:20;;;;;;;0.60;0.30;;;18.20;99.90;;;;;;5074196;28;20427;-58
2023/04/23 10:06:48;;;;;;;0.40;0.20;;;18.40;99.90;;;;;;5073807;28;20501;-59
2023/04/23 10:09:16;;;;;;;0.70;0.30;;;18.60;99.90;;;;;;5071938;28;20749;-60
2023/04/23 10:11:45;;;;;;;1.00;0.30;;;18.70;99.90;;;;;;5071745;28;20427;-57
2023/04/23 10:14:12;;;;;;;0.40;0.20;;;18.70;99.90;;;;;;5071801;28;20998;-59
2023/04/23 10:16:40;;;;;;;0.50;0.20;;;18.70;99.90;;;;;;5072004;28;20875;-60
2023/04/23 10:19:11;;;;;;;1.60;0.20;;;18.80;99.90;;;;;;5071766;28;20843;-61
2023/04/23 10:21:39;;;;;;;0.40;0.20;;;18.80;99.90;;;;;;5071479;28;20435;-58
2023/04/23 10:24:09;;;;;;;1.20;0.30;;;19.10;99.90;;;;;;5072951;28;20850;-61
2023/04/23 10:26:38;;;;;;;0.80;0.20;;;19.30;99.90;;;;;;5073491;28;20528;-60
2023/04/23 10:29:09;;;;;;;0.40;0.20;;;19.40;99.90;;;;;;5072276;28;20476;-61
2023/04/23 10:31:37;;;;;;;0.50;0.30;;;19.40;99.90;;;;;;5073942;28;20431;-59
2023/04/23 10:34:05;;;;;;;1.00;0.30;;;19.30;99.90;;;;;;5074005;28;20874;-61
2023/04/23 10:36:33;;;;;;;0.80;0.20;;;19.20;99.90;;;;;;5074587;28;20431;-61
2023/04/23 10:39:03;;;;;;;0.60;0.30;;;19.20;99.90;;;;;;5071235;28;20523;-60
2023/04/23 10:41:36;;;;;;;0.60;0.30;;;19.00;99.90;;;;;;5073721;28;20439;-60
2023/04/23 10:44:04;;;;;;;0.90;0.30;;;18.80;99.90;;;;;;5072700;28;20422;-61
2023/04/23 10:46:34;;;;;;;0.98;0.40;;;18.80;99.90;;;;;;5073812;28;20439;-62
2023/04/23 10:49:13;;;;;;;0.40;0.25;;;19.20;99.90;;;;;;5073523;28;20538;-60
2023/04/23 10:51:41;;;;;;;0.40;0.20;;;19.60;99.90;;;;;;5071063;28;20423;-61
2023/04/23 10:54:10;;;;;;;0.40;0.20;;;19.90;99.90;;;;;;5072481;28;20420;-62
2023/04/23 10:56:38;;;;;;;0.50;0.30;;;20.10;99.90;;;;;;5072769;28;20427;-62
2023/04/23 10:59:08;;;;;;;0.40;0.20;;;20.00;99.90;;;;;;5071738;28;20430;-62
2023/04/23 11:01:36;;;;;;;0.40;0.20;;;20.00;99.90;;;;;;5072741;28;20530;-61
2023/04/23 11:04:25;;;;;;;0.40;0.20;;;19.60;99.90;;;;;;5074957;28;20444;-62
2023/04/23 11:06:57;;;;;;;0.90;0.30;;;19.50;99.90;;;;;;5085244;28;20442;-61
2023/04/23 11:09:38;;;;;;;0.40;0.20;;;19.40;99.90;;;;;;5092641;28;20418;-61
2023/04/23 11:12:11;;;;;;;0.40;0.20;;;19.30;99.90;;;;;;5092715;28;20460;-61
2023/04/23 11:14:45;;;;;;;0.55;0.30;;;19.30;99.90;;;;;;5088981;28;20422;-61
2023/04/23 11:17:15;;;;;;;1.20;0.30;;;19.40;99.90;;;;;;5091270;28;20501;-61
2023/04/23 11:20:05;;;;;;;0.70;0.30;;;19.60;99.90;;;;;;5091940;28;20413;-62
2023/04/23 11:22:35;;;;;;;0.40;0.20;;;19.50;99.90;;;;;;5093165;28;20426;-61
2023/04/23 11:25:04;;;;;;;0.50;0.30;;;19.30;99.90;;;;;;5092710;28;20536;-61
2023/04/23 11:27:31;;;;;;;0.90;0.20;;;19.30;99.90;;;;;;5090233;28;20728;-61
2023/04/23 11:29:58;;;;;;;0.40;0.30;;;19.30;99.90;;;;;;5091481;28;20703;-61
2023/04/23 11:32:28;;;;;;;0.40;0.30;;;19.10;99.90;;;;;;5089651;28;20746;-63
2023/04/23 11:34:56;;;;;;;0.30;0.20;;;18.90;99.90;;;;;;5082105;28;20748;-61
2023/04/23 11:37:25;;;;;;;0.40;0.20;;;19.20;99.90;;;;;;5089884;28;20877;-62
2023/04/23 11:39:52;;;;;;;0.50;0.30;;;19.50;99.90;;;;;;5089205;28;20524;-61
2023/04/23 11:42:20;;;;;;;0.43;0.20;;;19.70;99.90;;;;;;5091812;28;20452;-61
2023/04/23 11:44:48;;;;;;;0.40;0.20;;;20.00;99.90;;;;;;5088514;28;20448;-61
2023/04/23 11:47:17;;;;;;;0.40;0.20;;;20.30;99.90;;;;;;5087070;28;20451;-60
2023/04/23 11:49:45;;;;;;;0.40;0.20;;;20.40;99.90;;;;;;5088277;28;20429;-60
2023/04/23 11:52:14;;;;;;;0.43;0.22;;;20.70;99.90;;;;;;5085925;28;20417;-61
2023/04/23 11:54:41;;;;;;;0.68;0.20;;;20.90;99.90;;;;;;5082652;28;20422;-61
2023/04/23 11:57:09;;;;;;;0.43;0.20;;;21.10;99.90;;;;;;5086812;28;20437;-62
2023/04/23 11:59:36;;;;;;;0.40;0.20;;;20.70;99.90;;;;;;5093404;28;20496;-60
2023/04/23 12:02:03;;;;;;;0.43;0.20;;;20.60;99.90;;;;;;5076139;28;20434;-62
2023/04/23 12:04:31;;;;;;;0.40;0.30;;;20.40;99.90;;;;;;5092971;28;20504;-62
2023/04/23 12:07:00;;;;;;;0.60;0.35;;;20.40;99.90;;;;;;5087556;28;20419;-62
2023/04/23 12:09:29;;;;;;;0.50;0.20;;;20.30;99.90;;;;;;5091672;28;20418;-65
2023/04/23 12:11:57;;;;;;;0.90;0.30;;;20.40;99.90;;;;;;5089532;28;20512;-62
2023/04/23 12:14:28;;;;;;;0.40;0.20;;;20.50;99.90;;;;;;5084838;28;20422;-63
2023/04/23 12:16:55;;;;;;;0.40;0.30;;;20.40;99.90;;;;;;5091411;28;20706;-61
2023/04/23 12:19:28;;;;;;;0.40;0.20;;;20.30;99.90;;;;;;5081464;28;20428;-61
2023/04/23 12:21:57;;;;;;;0.47;0.20;;;19.90;99.90;;;;;;5075338;28;20442;-61
2023/04/23 12:24:27;;;;;;;0.45;0.20;;;19.80;99.90;;;;;;5090355;28;20449;-61
2023/04/23 12:26:57;;;;;;;0.90;0.57;;;19.50;99.90;;;;;;5079259;28;20435;-60
2023/04/23 12:29:25;;;;;;;0.40;0.20;;;19.50;99.90;;;;;;5082977;28;20433;-63
2023/04/23 12:31:53;;;;;;;0.40;0.30;;;19.50;99.90;;;;;;5089504;28;20421;-62
2023/04/23 12:34:21;;;;;;;0.60;0.20;;;19.60;99.90;;;;;;5083647;28;20485;-61
2023/04/23 12:36:50;;;;;;;1.30;0.30;;;19.80;99.90;;;;;;5083560;28;20872;-62
2023/04/23 12:39:23;;;;;;;0.40;0.20;;;19.90;99.90;;;;;;5078357;28;20434;-59
2023/04/23 12:41:53;;;;;;;0.50;0.20;;;19.90;99.90;;;;;;5089221;28;20441;-60
2023/04/23 12:44:21;;;;;;;0.50;0.30;;;19.80;99.90;;;;;;5093844;28;20418;-59
2023/04/23 12:46:54;;;;;;;0.40;0.30;;;20.30;99.90;;;;;;5094639;28;20880;-59
2023/04/23 12:49:21;;;;;;;0.60;0.20;;;20.60;99.90;;;;;;5091587;28;20441;-61
2023/04/23 12:51:48;;;;;;;0.40;0.20;;;20.90;99.90;;;;;;5092641;28;20555;-60
2023/04/23 12:54:15;;;;;;;0.40;0.20;;;21.40;99.90;;;;;;5091336;28;20449;-59